Time;durP1;ratioP1;P1;durP2;ratioP2;P2;SDS_P1;SDS_P2;PMS_P1;PMS_P2;Temp;Humidity;BMP_temperature;BMP_pressure;BME280_temperature;BME280_humidity;BME280_pressure;Samples;Min_cycle;Max_cycle;Signal;HPM_P1;HPM_P2
2022/08/10 00:00:35;;;;;;;2.90;2.70;;;22.60;54.70;;;;;;5006758;28;20218;-61
2022/08/10 00:03:00;;;;;;;2.90;2.70;;;22.60;55.10;;;;;;5010737;28;20170;-60
2022/08/10 00:05:27;;;;;;;3.10;2.80;;;22.60;55.40;;;;;;5010239;28;20189;-61
2022/08/10 00:07:53;;;;;;;2.77;2.50;;;22.60;55.70;;;;;;5010695;28;20257;-61
2022/08/10 00:10:21;;;;;;;3.30;3.00;;;22.60;55.00;;;;;;5011442;28;20800;-61
2022/08/10 00:12:47;;;;;;;3.73;2.90;;;22.50;55.40;;;;;;5005541;28;20210;-61
2022/08/10 00:15:16;;;;;;;3.10;2.90;;;22.60;56.20;;;;;;5010313;28;20947;-61
2022/08/10 00:17:41;;;;;;;3.17;2.93;;;22.60;56.80;;;;;;5003755;28;20608;-61
2022/08/10 00:20:07;;;;;;;3.50;2.90;;;22.60;55.70;;;;;;5010402;28;20433;-61
2022/08/10 00:22:33;;;;;;;3.53;3.23;;;22.50;56.40;;;;;;5003851;28;20180;-60
2022/08/10 00:24:59;;;;;;;3.80;3.60;;;22.30;57.10;;;;;;5011082;28;20433;-60
2022/08/10 00:27:28;;;;;;;2.93;2.73;;;22.20;57.60;;;;;;5009760;28;20679;-61
2022/08/10 00:29:55;;;;;;;3.90;3.20;;;22.10;58.10;;;;;;5008517;28;20456;-60
2022/08/10 00:32:20;;;;;;;3.00;2.80;;;22.00;58.20;;;;;;5009776;28;20446;-62
2022/08/10 00:34:46;;;;;;;3.13;2.83;;;22.10;58.60;;;;;;5010193;28;21235;-62
2022/08/10 00:37:13;;;;;;;3.40;3.10;;;22.10;58.70;;;;;;5009474;28;20209;-63
2022/08/10 00:39:38;;;;;;;3.03;2.83;;;22.00;58.80;;;;;;5009763;28;20582;-62
2022/08/10 00:42:06;;;;;;;3.10;2.80;;;21.90;59.60;;;;;;5013734;28;20426;-60
2022/08/10 00:44:32;;;;;;;2.93;2.73;;;21.80;59.40;;;;;;5009092;28;20579;-61
2022/08/10 00:46:59;;;;;;;2.53;2.43;;;21.70;59.50;;;;;;5009464;28;20457;-59
2022/08/10 00:49:26;;;;;;;3.10;2.90;;;21.80;59.80;;;;;;5009678;28;20202;-60
2022/08/10 00:51:54;;;;;;;4.87;3.10;;;21.70;59.70;;;;;;5008932;28;20454;-59
2022/08/10 00:54:19;;;;;;;3.45;3.08;;;21.70;60.00;;;;;;5006366;28;20458;-60
2022/08/10 00:56:45;;;;;;;3.20;3.00;;;21.60;60.50;;;;;;5009481;28;20217;-60
2022/08/10 00:59:11;;;;;;;4.17;2.93;;;21.40;60.90;;;;;;5008705;28;20194;-59
2022/08/10 01:01:37;;;;;;;4.95;3.15;;;21.40;61.40;;;;;;5009521;28;20201;-60
2022/08/10 01:04:03;;;;;;;2.97;2.77;;;21.40;61.40;;;;;;5010359;28;20641;-62
2022/08/10 01:06:44;;;;;;;3.47;3.17;;;21.30;61.80;;;;;;5009121;28;20175;-60
2022/08/10 01:09:10;;;;;;;3.25;2.97;;;21.10;62.60;;;;;;5007922;28;20445;-59
2022/08/10 01:11:47;;;;;;;2.80;2.40;;;20.90;63.60;;;;;;5010273;28;20197;-61
2022/08/10 01:14:34;;;;;;;3.53;3.25;;;20.90;64.00;;;;;;5011072;28;20226;-60
2022/08/10 01:17:08;;;;;;;3.00;2.80;;;21.10;64.00;;;;;;5009425;28;20237;-60
2022/08/10 01:20:04;;;;;;;2.92;2.70;;;21.10;63.60;;;;;;5009623;28;20175;-60
2022/08/10 01:22:51;;;;;;;3.25;2.80;;;20.90;63.90;;;;;;5003718;28;20671;-59
2022/08/10 01:25:26;;;;;;;2.90;2.70;;;20.90;64.30;;;;;;5004598;28;20661;-59
2022/08/10 01:28:02;;;;;;;3.42;3.13;;;20.80;64.80;;;;;;5007906;28;20238;-59
2022/08/10 01:30:31;;;;;;;5.30;2.90;;;20.60;65.80;;;;;;5009155;28;20227;-60
2022/08/10 01:33:07;;;;;;;3.28;3.00;;;20.60;65.80;;;;;;5010345;28;20216;-59
2022/08/10 01:35:52;;;;;;;3.22;2.72;;;20.60;66.50;;;;;;5009878;28;20265;-60
2022/08/10 01:38:24;;;;;;;3.67;3.38;;;20.30;67.10;;;;;;5005012;28;20893;-60
2022/08/10 01:41:04;;;;;;;3.53;3.30;;;20.10;68.80;;;;;;5010008;28;20738;-62
2022/08/10 01:43:32;;;;;;;2.97;2.78;;;20.10;69.50;;;;;;5009675;28;20197;-62
2022/08/10 01:46:01;;;;;;;4.25;2.80;;;19.60;69.80;;;;;;5008165;28;20187;-60
2022/08/10 01:48:31;;;;;;;3.83;3.22;;;19.80;70.80;;;;;;5006725;28;20205;-60
2022/08/10 01:51:00;;;;;;;3.90;3.53;;;19.60;72.10;;;;;;5013038;28;20186;-60
2022/08/10 01:53:34;;;;;;;3.00;2.70;;;19.50;72.90;;;;;;5006218;28;20595;-60
2022/08/10 01:56:01;;;;;;;4.53;3.00;;;19.40;73.60;;;;;;5010039;28;20229;-59
2022/08/10 01:58:28;;;;;;;3.20;3.00;;;19.30;74.80;;;;;;5007489;28;20238;-60
2022/08/10 02:00:55;;;;;;;3.40;3.10;;;19.30;75.30;;;;;;5011597;28;20293;-60
2022/08/10 02:03:22;;;;;;;3.20;3.00;;;19.20;76.30;;;;;;5012069;28;20182;-61
2022/08/10 02:05:53;;;;;;;3.40;3.10;;;19.00;77.20;;;;;;5013310;28;20195;-61
2022/08/10 02:08:21;;;;;;;3.17;2.97;;;19.40;78.70;;;;;;5010536;28;20292;-61
2022/08/10 02:10:48;;;;;;;5.28;3.40;;;18.60;78.40;;;;;;5009979;28;20192;-60
2022/08/10 02:13:16;;;;;;;3.72;3.38;;;18.90;79.50;;;;;;5011553;28;20193;-62
2022/08/10 02:15:44;;;;;;;3.60;3.40;;;18.90;80.00;;;;;;5009084;28;20187;-61
2022/08/10 02:18:11;;;;;;;3.95;3.65;;;18.80;80.80;;;;;;5012094;28;20228;-62
2022/08/10 02:20:43;;;;;;;3.90;3.60;;;18.70;81.30;;;;;;5006288;28;20189;-61
2022/08/10 02:23:13;;;;;;;3.65;3.05;;;18.70;83.10;;;;;;5011666;28;20191;-61
2022/08/10 02:25:40;;;;;;;3.47;3.28;;;18.70;82.80;;;;;;5008188;28;21181;-61
2022/08/10 02:28:07;;;;;;;3.70;3.40;;;18.60;83.30;;;;;;5009200;28;20202;-61
2022/08/10 02:30:34;;;;;;;3.33;3.03;;;18.50;83.90;;;;;;5012971;28;20180;-61
2022/08/10 02:33:01;;;;;;;3.55;3.30;;;18.50;84.50;;;;;;5012273;28;20183;-61
2022/08/10 02:35:27;;;;;;;3.60;3.30;;;18.50;84.90;;;;;;5012744;28;20187;-60
2022/08/10 02:38:00;;;;;;;3.63;3.38;;;18.50;85.30;;;;;;5010632;28;20261;-62
2022/08/10 02:40:29;;;;;;;4.68;3.60;;;18.40;86.70;;;;;;5013045;28;20224;-62
2022/08/10 02:43:08;;;;;;;3.05;2.85;;;18.50;88.80;;;;;;5012720;28;20187;-63
2022/08/10 02:45:42;;;;;;;3.28;3.08;;;18.40;87.10;;;;;;5011924;28;20205;-62
2022/08/10 02:48:18;;;;;;;3.83;3.53;;;18.40;87.80;;;;;;5005429;28;20695;-63
2022/08/10 02:50:51;;;;;;;3.35;3.05;;;18.30;88.10;;;;;;5009682;28;20201;-62
2022/08/10 02:53:29;;;;;;;3.30;3.10;;;18.30;88.60;;;;;;5011352;28;20183;-62
2022/08/10 02:56:18;;;;;;;3.45;3.15;;;18.30;88.80;;;;;;5012218;28;20202;-62
2022/08/10 02:58:46;;;;;;;3.67;3.33;;;18.30;88.90;;;;;;5010129;28;20680;-61
2022/08/10 03:01:18;;;;;;;5.47;3.90;;;18.40;89.20;;;;;;5005158;28;20199;-62
2022/08/10 03:03:48;;;;;;;3.65;3.45;;;18.40;88.70;;;;;;5011924;28;20197;-62
2022/08/10 03:06:19;;;;;;;3.40;3.20;;;18.40;89.20;;;;;;5009593;28;20686;-63
2022/08/10 03:08:46;;;;;;;3.90;3.40;;;18.30;89.50;;;;;;5009571;28;20578;-62
2022/08/10 03:11:26;;;;;;;3.75;3.45;;;18.20;90.10;;;;;;5012244;28;20668;-62
2022/08/10 03:13:55;;;;;;;3.97;3.67;;;18.20;90.30;;;;;;5010394;28;20182;-62
2022/08/10 03:16:22;;;;;;;3.88;3.30;;;18.10;90.50;;;;;;5011465;28;20206;-61
2022/08/10 03:18:49;;;;;;;3.72;3.50;;;18.10;90.70;;;;;;5011126;28;20435;-61
2022/08/10 03:21:19;;;;;;;4.35;3.75;;;18.10;90.80;;;;;;5008021;28;20294;-62
2022/08/10 03:23:45;;;;;;;4.05;3.70;;;18.10;90.90;;;;;;5010588;28;20187;-62
2022/08/10 03:26:12;;;;;;;4.30;3.67;;;17.70;90.90;;;;;;5008038;28;20183;-61
2022/08/10 03:28:39;;;;;;;3.85;3.65;;;18.00;91.30;;;;;;5008042;28;20211;-61
2022/08/10 03:31:05;;;;;;;3.45;3.10;;;18.00;91.50;;;;;;5011261;28;20189;-61
2022/08/10 03:33:33;;;;;;;4.78;4.38;;;18.00;91.60;;;;;;5011561;28;20182;-61
2022/08/10 03:35:59;;;;;;;4.18;3.40;;;17.90;91.80;;;;;;5007919;28;20198;-62
2022/08/10 03:38:25;;;;;;;4.55;4.15;;;17.90;92.10;;;;;;5007035;28;20622;-61
2022/08/10 03:40:54;;;;;;;4.20;3.90;;;17.90;92.80;;;;;;5007007;28;20269;-62
2022/08/10 03:43:21;;;;;;;4.18;3.85;;;17.90;93.00;;;;;;5009839;28;20247;-61
2022/08/10 03:45:56;;;;;;;4.03;3.72;;;17.90;92.80;;;;;;5008854;28;20682;-60
2022/08/10 03:48:23;;;;;;;4.00;3.70;;;17.70;93.00;;;;;;5008006;28;20590;-60
2022/08/10 03:50:50;;;;;;;3.90;3.50;;;17.80;93.10;;;;;;5007513;28;20190;-61
2022/08/10 03:53:16;;;;;;;4.10;3.80;;;17.80;92.90;;;;;;5010496;28;20183;-61
2022/08/10 03:55:43;;;;;;;3.50;3.20;;;17.80;92.90;;;;;;5010346;28;20183;-61
2022/08/10 03:58:09;;;;;;;3.80;3.50;;;17.80;92.90;;;;;;5008293;28;20207;-63
2022/08/10 04:00:36;;;;;;;4.55;4.15;;;17.80;93.00;;;;;;5008257;28;20179;-62
2022/08/10 04:03:03;;;;;;;3.95;3.65;;;17.70;93.10;;;;;;5010648;28;20198;-62
2022/08/10 04:05:33;;;;;;;4.50;4.10;;;17.80;93.30;;;;;;5010534;28;20182;-62
2022/08/10 04:07:59;;;;;;;7.22;5.60;;;17.70;93.30;;;;;;5007756;28;20202;-61
2022/08/10 04:10:25;;;;;;;4.45;4.15;;;18.20;93.80;;;;;;5009952;28;20179;-61
2022/08/10 04:12:51;;;;;;;4.38;4.10;;;17.70;93.60;;;;;;5005945;28;20194;-61
2022/08/10 04:15:17;;;;;;;4.10;3.80;;;17.70;93.60;;;;;;5004583;28;20183;-60
2022/08/10 04:17:42;;;;;;;3.70;3.50;;;17.70;93.70;;;;;;5010536;28;20210;-60
2022/08/10 04:20:27;;;;;;;4.97;4.57;;;17.70;93.70;;;;;;5010803;28;20954;-60
2022/08/10 04:22:56;;;;;;;6.50;5.90;;;17.70;93.80;;;;;;5009288;28;20178;-61
2022/08/10 04:25:23;;;;;;;5.20;4.70;;;17.60;93.80;;;;;;5010429;28;20706;-61
2022/08/10 04:27:50;;;;;;;4.72;4.32;;;17.60;93.90;;;;;;5010427;28;20203;-62
2022/08/10 04:30:16;;;;;;;4.60;4.30;;;17.50;94.00;;;;;;5001952;28;20261;-63
2022/08/10 04:32:44;;;;;;;4.30;4.00;;;17.60;94.30;;;;;;5009751;28;20179;-61
2022/08/10 04:35:12;;;;;;;5.35;4.85;;;17.60;94.20;;;;;;5006580;28;20182;-61
2022/08/10 04:37:39;;;;;;;4.90;4.50;;;17.60;94.10;;;;;;5008849;28;20245;-63
2022/08/10 04:40:06;;;;;;;7.50;4.78;;;18.20;94.90;;;;;;5011262;28;20538;-61
2022/08/10 04:42:32;;;;;;;4.97;4.47;;;17.80;94.80;;;;;;5004905;28;20233;-62
2022/08/10 04:44:58;;;;;;;6.30;4.37;;;17.70;94.50;;;;;;5007716;28;20187;-62
2022/08/10 04:47:23;;;;;;;5.97;5.35;;;17.70;94.20;;;;;;5003677;28;20290;-62
2022/08/10 04:49:49;;;;;;;4.53;4.23;;;17.80;94.20;;;;;;5006672;28;20644;-61
2022/08/10 04:52:15;;;;;;;5.23;4.27;;;17.70;94.20;;;;;;5002511;28;20605;-62
2022/08/10 04:54:40;;;;;;;5.13;4.73;;;17.80;94.40;;;;;;5008668;28;20277;-59
2022/08/10 04:57:06;;;;;;;6.43;5.93;;;17.80;94.10;;;;;;5008815;28;20233;-59
2022/08/10 04:59:32;;;;;;;5.90;5.40;;;17.80;94.10;;;;;;5010276;28;20181;-59
2022/08/10 05:01:57;;;;;;;5.47;4.33;;;17.90;94.00;;;;;;5008981;28;20195;-61
2022/08/10 05:04:23;;;;;;;4.20;3.90;;;18.00;94.20;;;;;;5009898;28;20588;-61
2022/08/10 05:06:48;;;;;;;4.70;4.30;;;18.00;93.90;;;;;;5006670;28;20214;-61
2022/08/10 05:09:14;;;;;;;5.80;4.47;;;18.00;93.80;;;;;;5009705;28;20647;-61
2022/08/10 05:11:39;;;;;;;4.67;4.10;;;18.10;93.50;;;;;;5005239;28;20286;-61
2022/08/10 05:14:05;;;;;;;5.07;4.57;;;18.20;93.30;;;;;;5002931;28;20245;-62
2022/08/10 05:16:30;;;;;;;4.83;4.43;;;18.70;93.70;;;;;;5005714;28;20329;-61
2022/08/10 05:18:56;;;;;;;5.40;4.77;;;18.50;93.00;;;;;;5004988;28;20213;-61
2022/08/10 05:21:22;;;;;;;6.87;4.77;;;18.50;92.70;;;;;;5001499;28;20190;-62
2022/08/10 05:23:47;;;;;;;4.53;4.13;;;18.50;92.80;;;;;;5010348;28;20183;-61
2022/08/10 05:26:13;;;;;;;6.03;5.53;;;18.60;92.60;;;;;;5006022;28;20715;-61
2022/08/10 05:28:38;;;;;;;5.70;5.20;;;18.60;92.40;;;;;;5012299;28;20596;-61
2022/08/10 05:31:04;;;;;;;5.77;5.37;;;18.70;92.50;;;;;;5012048;28;20187;-61
2022/08/10 05:33:29;;;;;;;5.63;5.13;;;18.90;92.20;;;;;;5009906;28;20187;-61
2022/08/10 05:35:56;;;;;;;5.30;4.80;;;18.90;92.00;;;;;;5012740;28;21281;-61
2022/08/10 05:38:25;;;;;;;6.13;5.13;;;19.00;91.90;;;;;;5008346;28;20199;-61
2022/08/10 05:40:51;;;;;;;5.88;4.78;;;19.10;92.20;;;;;;5008269;28;20549;-62
2022/08/10 05:43:19;;;;;;;6.00;5.50;;;19.10;92.20;;;;;;5012525;28;20652;-61
2022/08/10 05:45:46;;;;;;;6.78;5.53;;;19.20;91.80;;;;;;5012977;28;20664;-62
2022/08/10 05:48:11;;;;;;;5.65;5.15;;;19.20;91.30;;;;;;5013132;28;20293;-62
2022/08/10 05:50:37;;;;;;;4.90;4.50;;;19.30;91.40;;;;;;5014384;28;20273;-62
2022/08/10 05:53:03;;;;;;;8.70;4.77;;;19.50;91.60;;;;;;5012384;28;20207;-62
2022/08/10 05:55:30;;;;;;;5.43;4.93;;;19.70;90.40;;;;;;5012330;28;20452;-62
2022/08/10 05:57:57;;;;;;;5.45;4.95;;;19.90;89.50;;;;;;5010356;28;20694;-61
2022/08/10 06:00:24;;;;;;;5.70;3.22;;;19.90;88.40;;;;;;5010459;28;20262;-61
2022/08/10 06:02:56;;;;;;;4.57;3.30;;;20.20;90.50;;;;;;5008106;28;20194;-67
2022/08/10 06:05:28;;;;;;;5.85;4.57;;;20.00;89.70;;;;;;5008895;28;20176;-66
2022/08/10 06:08:01;;;;;;;4.60;3.78;;;20.80;87.80;;;;;;5023072;28;20203;-68
2022/08/10 06:10:28;;;;;;;3.97;3.60;;;21.00;86.70;;;;;;5011862;28;20194;-66
2022/08/10 06:15:42;;;;;;;5.38;3.38;;;21.50;84.80;;;;;;5008138;28;20313;-65
2022/08/10 06:18:08;;;;;;;3.23;3.03;;;21.70;81.80;;;;;;5012288;28;20228;-65
2022/08/10 06:20:34;;;;;;;3.37;3.07;;;21.90;80.40;;;;;;5017872;28;20441;-65
2022/08/10 06:23:01;;;;;;;3.83;3.37;;;22.00;79.10;;;;;;5009641;28;20831;-65
2022/08/10 06:25:30;;;;;;;4.07;3.67;;;22.30;79.30;;;;;;5009896;28;20433;-65
2022/08/10 06:27:57;;;;;;;5.17;3.10;;;22.40;76.50;;;;;;5010650;28;20535;-65
2022/08/10 06:30:25;;;;;;;4.00;3.60;;;22.50;75.30;;;;;;5011348;28;20451;-65
2022/08/10 06:32:55;;;;;;;6.50;3.83;;;22.60;75.60;;;;;;5006074;28;20442;-71
2022/08/10 06:35:24;;;;;;;4.30;3.50;;;22.70;78.10;;;;;;5009874;28;20450;-69
2022/08/10 06:37:50;;;;;;;3.60;2.90;;;22.90;78.00;;;;;;5008334;28;20470;-66
2022/08/10 06:40:16;;;;;;;3.20;2.90;;;23.00;76.90;;;;;;5004518;28;20529;-69
2022/08/10 06:42:47;;;;;;;3.60;3.20;;;23.20;76.20;;;;;;5010129;28;20485;-69
2022/08/10 06:45:17;;;;;;;3.90;3.30;;;23.20;74.90;;;;;;5005354;28;20183;-69
2022/08/10 06:47:59;;;;;;;3.20;2.83;;;23.30;75.50;;;;;;5006471;28;20457;-69
2022/08/10 06:50:40;;;;;;;3.13;2.73;;;23.50;74.10;;;;;;5010088;28;20450;-71
2022/08/10 06:53:19;;;;;;;3.17;2.93;;;23.50;72.40;;;;;;5009008;28;20849;-66
2022/08/10 06:55:56;;;;;;;3.67;3.47;;;23.60;72.30;;;;;;5018842;28;20965;-63
2022/08/10 06:58:25;;;;;;;3.87;3.37;;;23.80;70.50;;;;;;5010601;28;20453;-64
2022/08/10 07:00:52;;;;;;;2.60;2.40;;;23.80;70.90;;;;;;5005912;28;20906;-63
2022/08/10 07:03:19;;;;;;;5.43;3.83;;;24.00;70.00;;;;;;5011163;28;20535;-65
2022/08/10 07:05:49;;;;;;;6.37;3.50;;;24.00;67.10;;;;;;5008967;28;20548;-60
2022/08/10 07:08:19;;;;;;;2.60;2.40;;;24.20;65.70;;;;;;5008500;28;20462;-59
2022/08/10 07:10:46;;;;;;;4.80;2.80;;;24.50;67.10;;;;;;5012432;28;20433;-60
2022/08/10 07:13:15;;;;;;;3.17;2.37;;;25.30;63.50;;;;;;5009323;28;20939;-60
2022/08/10 07:15:43;;;;;;;2.80;2.60;;;27.70;58.70;;;;;;5010070;28;20444;-60
2022/08/10 07:18:10;;;;;;;3.30;3.00;;;29.70;54.20;;;;;;5009238;28;20439;-65
2022/08/10 07:20:36;;;;;;;2.80;2.60;;;32.00;48.40;;;;;;5009727;28;20840;-66
2022/08/10 07:23:02;;;;;;;4.80;3.27;;;34.40;43.00;;;;;;5008099;28;20456;-70
2022/08/10 07:25:29;;;;;;;3.10;2.83;;;34.90;40.20;;;;;;5010913;28;20440;-69
2022/08/10 07:27:58;;;;;;;3.43;2.97;;;36.30;37.50;;;;;;5004896;28;20536;-71
2022/08/10 07:30:27;;;;;;;4.07;2.90;;;36.40;37.20;;;;;;5007965;28;20481;-70
2022/08/10 07:32:54;;;;;;;3.30;3.00;;;35.90;35.50;;;;;;5007935;28;20445;-70
2022/08/10 07:35:21;;;;;;;3.07;2.87;;;39.00;34.00;;;;;;5010022;28;20449;-72
2022/08/10 07:37:50;;;;;;;2.80;2.57;;;39.90;31.10;;;;;;5017125;28;20529;-70
2022/08/10 07:40:19;;;;;;;3.40;2.87;;;39.80;30.40;;;;;;5003167;28;20465;-72
2022/08/10 07:42:49;;;;;;;2.83;2.53;;;41.30;29.40;;;;;;5009692;28;20444;-71
2022/08/10 07:45:15;;;;;;;2.10;2.00;;;41.80;28.20;;;;;;5009066;28;20425;-71
2022/08/10 07:48:08;;;;;;;2.70;2.50;;;42.40;27.00;;;;;;5007947;28;20469;-69
2022/08/10 07:50:38;;;;;;;5.67;3.00;;;42.10;26.20;;;;;;5007403;28;20198;-73
2022/08/10 07:53:09;;;;;;;4.13;3.73;;;39.90;27.70;;;;;;5008942;28;20980;-72
2022/08/10 07:55:36;;;;;;;2.60;2.40;;;41.30;27.90;;;;;;5009743;28;20954;-69
2022/08/10 07:58:04;;;;;;;3.37;2.67;;;42.60;26.20;;;;;;5002938;28;20989;-69
2022/08/10 08:00:31;;;;;;;2.70;2.50;;;42.60;26.50;;;;;;5005695;28;20473;-69
2022/08/10 08:03:00;;;;;;;3.00;2.27;;;43.60;25.90;;;;;;5008420;28;20452;-72
2022/08/10 08:05:28;;;;;;;2.70;2.50;;;42.70;25.60;;;;;;5007523;28;20445;-71
2022/08/10 08:07:56;;;;;;;2.60;2.40;;;41.50;25.50;;;;;;5008731;28;21030;-70
2022/08/10 08:10:24;;;;;;;3.80;2.57;;;40.40;27.70;;;;;;5009648;28;20592;-71
2022/08/10 08:12:51;;;;;;;3.50;2.97;;;41.50;26.70;;;;;;5007752;28;20438;-76
2022/08/10 08:15:19;;;;;;;2.77;2.30;;;40.60;27.40;;;;;;5010924;28;20442;-74
2022/08/10 08:17:47;;;;;;;3.50;2.73;;;40.30;27.00;;;;;;5006429;28;20478;-72
2022/08/10 08:20:14;;;;;;;3.33;3.00;;;40.90;26.50;;;;;;5008040;28;20444;-71
2022/08/10 08:22:41;;;;;;;2.50;2.20;;;41.80;26.80;;;;;;5005582;28;20473;-70
2022/08/10 08:25:07;;;;;;;2.80;2.60;;;41.90;26.10;;;;;;5009457;28;20476;-69
2022/08/10 08:27:35;;;;;;;3.17;2.87;;;42.70;25.90;;;;;;5006388;28;20465;-71
2022/08/10 08:30:02;;;;;;;2.47;2.37;;;43.80;25.00;;;;;;5006814;28;20441;-75
2022/08/10 08:32:30;;;;;;;2.50;2.30;;;43.90;24.80;;;;;;5001759;28;20429;-73
2022/08/10 08:35:00;;;;;;;3.00;2.70;;;43.70;24.50;;;;;;5007660;28;20483;-74
2022/08/10 08:37:29;;;;;;;2.80;2.30;;;43.30;25.00;;;;;;5007809;28;20465;-66
2022/08/10 08:39:55;;;;;;;2.67;2.27;;;43.00;24.60;;;;;;5007812;28;20442;-66
2022/08/10 08:42:36;;;;;;;3.10;2.90;;;42.40;25.30;;;;;;5008691;28;20529;-70
2022/08/10 08:45:08;;;;;;;2.23;2.13;;;42.40;25.00;;;;;;5022662;28;20580;-71
2022/08/10 08:47:46;;;;;;;2.70;2.50;;;42.10;25.30;;;;;;5002325;28;20519;-67
2022/08/10 08:50:24;;;;;;;2.83;2.43;;;41.60;25.80;;;;;;4997575;28;20449;-67
2022/08/10 08:53:11;;;;;;;3.00;2.33;;;41.30;25.50;;;;;;5003734;28;20445;-68
2022/08/10 08:55:50;;;;;;;3.47;2.40;;;40.60;26.10;;;;;;5008488;28;20437;-67
2022/08/10 08:58:22;;;;;;;3.03;2.73;;;40.10;26.70;;;;;;5004968;28;20997;-67
2022/08/10 09:01:01;;;;;;;2.20;2.10;;;40.00;27.70;;;;;;5013576;28;20809;-68
2022/08/10 09:03:42;;;;;;;3.83;2.40;;;40.40;26.10;;;;;;5011960;28;20456;-67
2022/08/10 09:06:35;;;;;;;2.70;2.50;;;39.80;26.50;;;;;;5010811;28;20747;-67
2022/08/10 09:09:24;;;;;;;3.93;2.60;;;39.80;26.80;;;;;;4994841;28;20454;-67
2022/08/10 09:12:06;;;;;;;2.97;2.40;;;40.00;26.70;;;;;;5012312;28;20464;-68
2022/08/10 09:14:53;;;;;;;2.63;2.07;;;39.90;26.30;;;;;;4993872;28;20453;-67
2022/08/10 09:17:45;;;;;;;2.40;2.20;;;40.00;26.10;;;;;;5005508;28;20505;-67
2022/08/10 09:20:28;;;;;;;2.30;2.20;;;39.90;25.30;;;;;;5016972;28;20429;-68
2022/08/10 09:23:23;;;;;;;3.10;2.80;;;40.70;25.80;;;;;;5012672;28;20433;-67
2022/08/10 09:26:02;;;;;;;2.80;2.70;;;40.60;25.20;;;;;;5012892;28;20429;-67
2022/08/10 09:28:36;;;;;;;2.57;2.37;;;39.50;26.10;;;;;;5013630;28;20441;-67
2022/08/10 09:31:05;;;;;;;2.40;2.20;;;39.50;25.00;;;;;;4999369;28;20986;-68
2022/08/10 09:33:31;;;;;;;2.30;2.10;;;38.30;25.50;;;;;;5007631;28;20852;-68
2022/08/10 09:36:10;;;;;;;3.40;3.10;;;38.10;25.90;;;;;;5012308;28;20878;-67
2022/08/10 09:39:11;;;;;;;6.60;2.40;;;37.10;26.60;;;;;;5012231;28;20215;-67
2022/08/10 09:42:01;;;;;;;2.80;2.20;;;36.40;26.80;;;;;;5003417;28;20426;-67
2022/08/10 09:44:38;;;;;;;2.83;2.30;;;35.60;27.20;;;;;;5018415;28;20440;-67
2022/08/10 09:47:24;;;;;;;4.13;2.90;;;35.00;27.80;;;;;;5014623;28;20810;-68
2022/08/10 09:50:25;;;;;;;4.20;2.47;;;34.60;28.00;;;;;;5012014;28;20467;-68
2022/08/10 09:53:14;;;;;;;3.20;2.23;;;34.20;28.20;;;;;;4989346;28;20954;-68
2022/08/10 09:55:45;;;;;;;2.53;2.33;;;34.40;28.80;;;;;;5012302;28;20426;-66
2022/08/10 09:58:35;;;;;;;3.70;2.07;;;34.00;29.20;;;;;;5012354;28;20802;-66
2022/08/10 10:01:40;;;;;;;3.07;2.40;;;34.30;29.10;;;;;;5011389;28;20457;-66
2022/08/10 10:04:24;;;;;;;2.00;1.90;;;34.20;29.70;;;;;;4991862;28;20959;-66
2022/08/10 10:07:03;;;;;;;2.10;2.00;;;34.20;28.90;;;;;;5006995;28;20442;-66
2022/08/10 10:09:29;;;;;;;4.87;2.30;;;33.90;29.20;;;;;;5012381;28;20492;-66
2022/08/10 10:12:09;;;;;;;2.07;1.97;;;33.20;28.70;;;;;;5012789;28;20429;-67
2022/08/10 10:17:46;;;;;;;2.70;2.50;;;33.10;29.40;;;;;;5004901;28;20476;-67
2022/08/10 10:20:29;;;;;;;2.60;2.40;;;32.40;30.40;;;;;;5012747;28;20436;-67
2022/08/10 10:23:16;;;;;;;2.50;2.30;;;31.80;30.70;;;;;;5008351;28;20497;-67
2022/08/10 10:25:58;;;;;;;2.17;2.07;;;31.40;31.60;;;;;;5012944;28;20925;-67
2022/08/10 10:28:28;;;;;;;5.50;2.43;;;31.20;31.80;;;;;;5013165;28;20489;-68
2022/08/10 10:31:05;;;;;;;2.43;2.23;;;31.00;32.10;;;;;;5011356;28;20448;-69
2022/08/10 10:33:59;;;;;;;3.20;2.10;;;31.00;32.40;;;;;;4999914;28;20488;-66
2022/08/10 10:36:26;;;;;;;2.60;2.17;;;30.50;32.70;;;;;;5010999;28;20560;-67
2022/08/10 10:38:57;;;;;;;2.30;1.90;;;30.40;33.10;;;;;;5012140;28;20458;-67
2022/08/10 10:42:04;;;;;;;3.00;2.40;;;30.20;33.80;;;;;;5012214;28;20437;-69
2022/08/10 10:44:48;;;;;;;2.23;2.10;;;30.00;34.20;;;;;;4979573;28;20444;-70
2022/08/10 10:47:36;;;;;;;2.40;2.20;;;29.70;34.50;;;;;;5004838;28;20506;-70
2022/08/10 10:50:17;;;;;;;2.40;2.20;;;29.50;34.40;;;;;;5003827;28;20534;-67
2022/08/10 10:53:00;;;;;;;7.23;2.30;;;29.40;35.10;;;;;;5008399;28;20509;-68
2022/08/10 10:55:41;;;;;;;2.13;2.03;;;29.30;35.40;;;;;;5012028;28;20524;-69
2022/08/10 10:58:18;;;;;;;2.53;2.33;;;29.20;35.50;;;;;;4999712;28;21007;-68
2022/08/10 11:01:22;;;;;;;2.60;2.23;;;29.20;36.10;;;;;;5006866;28;20838;-68
2022/08/10 11:04:06;;;;;;;2.57;2.37;;;29.30;36.00;;;;;;4995333;28;20521;-68
2022/08/10 11:06:34;;;;;;;2.27;2.07;;;29.40;35.50;;;;;;5009923;28;20452;-68
2022/08/10 11:09:06;;;;;;;2.60;2.40;;;29.30;34.30;;;;;;5017277;28;20449;-68
2022/08/10 11:11:36;;;;;;;2.27;2.07;;;29.40;35.20;;;;;;5009933;28;20445;-68
2022/08/10 11:14:31;;;;;;;1.97;1.80;;;29.40;34.60;;;;;;5008758;28;20918;-67
2022/08/10 11:17:16;;;;;;;2.33;2.13;;;29.60;34.00;;;;;;4998827;28;20475;-69
2022/08/10 11:19:47;;;;;;;2.17;1.97;;;29.80;33.60;;;;;;5007407;28;21077;-69
2022/08/10 11:22:27;;;;;;;3.83;2.40;;;29.70;33.50;;;;;;5006941;28;20442;-69
2022/08/10 11:25:11;;;;;;;2.00;1.90;;;29.70;33.80;;;;;;5010303;28;20544;-67
2022/08/10 11:28:12;;;;;;;2.00;1.90;;;30.10;33.20;;;;;;4998192;28;20958;-68
2022/08/10 11:31:00;;;;;;;8.30;2.17;;;30.40;33.20;;;;;;5002412;28;20906;-68
2022/08/10 11:34:02;;;;;;;2.50;2.30;;;31.30;33.40;;;;;;4997637;28;20443;-67
2022/08/10 11:36:40;;;;;;;2.03;1.93;;;31.50;32.60;;;;;;4997010;28;20464;-68
2022/08/10 11:39:18;;;;;;;2.37;2.17;;;32.30;31.00;;;;;;5015740;28;20457;-68
2022/08/10 11:41:43;;;;;;;2.17;1.90;;;32.90;30.10;;;;;;5009603;28;20907;-68
2022/08/10 11:44:12;;;;;;;2.77;2.57;;;32.50;30.40;;;;;;5016284;28;20445;-68
2022/08/10 11:46:45;;;;;;;1.90;1.80;;;32.90;30.10;;;;;;5010350;28;20187;-68
2022/08/10 11:49:22;;;;;;;2.00;1.90;;;33.20;30.40;;;;;;5021871;28;20450;-68
2022/08/10 11:51:56;;;;;;;2.30;2.10;;;33.70;29.90;;;;;;5009735;28;20942;-67
2022/08/10 11:54:33;;;;;;;2.17;2.07;;;33.40;29.40;;;;;;5010058;28;20507;-67
2022/08/10 11:57:00;;;;;;;2.50;2.30;;;33.20;29.80;;;;;;5009966;28;20473;-68
2022/08/10 12:02:15;;;;;;;2.30;2.07;;;32.30;29.80;;;;;;5007358;28;20596;-67
2022/08/10 12:04:49;;;;;;;4.83;2.37;;;31.80;30.70;;;;;;5010511;28;20439;-67
2022/08/10 12:07:17;;;;;;;2.53;2.33;;;31.80;30.90;;;;;;5009304;28;20859;-68
2022/08/10 12:09:43;;;;;;;3.30;2.33;;;31.40;31.40;;;;;;5014215;28;20434;-68
2022/08/10 12:12:10;;;;;;;2.50;2.30;;;30.80;32.60;;;;;;5010334;28;20444;-68
2022/08/10 12:14:45;;;;;;;2.00;1.90;;;30.50;32.80;;;;;;5009541;28;20541;-68
2022/08/10 12:17:47;;;;;;;2.47;2.27;;;30.30;33.60;;;;;;4999910;28;20977;-68
2022/08/10 12:20:33;;;;;;;2.90;2.70;;;30.30;34.00;;;;;;5011753;28;20433;-67
2022/08/10 12:23:21;;;;;;;3.13;2.40;;;30.30;34.20;;;;;;5003584;28;20449;-63
2022/08/10 12:26:06;;;;;;;2.80;2.60;;;30.30;33.30;;;;;;5004622;28;20452;-68
2022/08/10 12:28:54;;;;;;;2.97;2.07;;;30.00;33.20;;;;;;5004214;28;20508;-70
2022/08/10 12:31:28;;;;;;;3.50;2.30;;;30.00;33.90;;;;;;5000968;28;20446;-66
2022/08/10 12:34:18;;;;;;;2.33;2.13;;;30.10;34.30;;;;;;5005969;28;20465;-70
2022/08/10 12:37:10;;;;;;;2.10;2.00;;;30.20;34.00;;;;;;5000586;28;20558;-66
2022/08/10 12:39:57;;;;;;;2.50;2.20;;;30.10;33.50;;;;;;5000481;28;20434;-63
2022/08/10 12:42:32;;;;;;;4.73;2.30;;;29.70;34.00;;;;;;5006661;28;20453;-63
2022/08/10 12:45:07;;;;;;;2.03;1.93;;;29.70;33.80;;;;;;5006563;28;20479;-64
2022/08/10 12:47:50;;;;;;;2.20;2.10;;;29.70;33.90;;;;;;5006115;28;20471;-63
2022/08/10 12:50:23;;;;;;;2.90;2.57;;;29.60;34.10;;;;;;5004888;28;20453;-64
2022/08/10 12:52:56;;;;;;;4.93;3.03;;;29.50;34.60;;;;;;5005620;28;20452;-65
2022/08/10 12:55:25;;;;;;;2.40;2.20;;;29.70;34.70;;;;;;5004860;28;20449;-65
2022/08/10 12:57:54;;;;;;;3.63;2.50;;;29.60;34.30;;;;;;5004277;28;20549;-64
2022/08/10 13:00:30;;;;;;;2.17;2.07;;;29.50;34.70;;;;;;5003791;28;20827;-65
2022/08/10 13:02:58;;;;;;;2.47;2.37;;;29.40;34.60;;;;;;5005315;28;20444;-66
2022/08/10 13:05:25;;;;;;;2.23;2.00;;;29.50;35.10;;;;;;5003496;28;20512;-67
2022/08/10 13:09:07;;;;;;;4.60;2.50;;;29.40;34.60;;;;;;5002490;28;20476;-67
2022/08/10 13:10:47;;;;;;;3.00;2.80;;;29.40;34.50;;;;;;5002161;28;20502;-64
2022/08/10 13:13:16;;;;;;;2.07;1.93;;;29.30;34.60;;;;;;5004586;28;20451;-66
2022/08/10 13:15:45;;;;;;;2.20;2.10;;;29.20;34.70;;;;;;5000025;28;20445;-64
2022/08/10 13:18:14;;;;;;;2.57;2.37;;;29.20;34.50;;;;;;5005088;28;20484;-65
2022/08/10 13:20:40;;;;;;;2.57;2.30;;;29.30;34.70;;;;;;5004575;28;20440;-65
2022/08/10 13:23:20;;;;;;;2.50;2.30;;;29.30;34.80;;;;;;5006285;28;20455;-64